sensor_id;sensor_type;location;lat;lon;timestamp;P1;durP1;ratioP1;P2;durP2;ratioP2
12048;SDS011;6085;49.452;8.502;2022-07-11T00:03:25;2.55;;;2.35;;
12048;SDS011;6085;49.452;8.502;2022-07-11T00:07:29;2.70;;;2.50;;
12048;SDS011;6085;49.452;8.502;2022-07-11T00:11:31;2.50;;;2.40;;
12048;SDS011;6085;49.452;8.502;2022-07-11T00:15:33;2.63;;;2.40;;
12048;SDS011;6085;49.452;8.502;2022-07-11T00:19:36;2.67;;;2.50;;
12048;SDS011;6085;49.452;8.502;2022-07-11T00:23:40;2.63;;;2.33;;
12048;SDS011;6085;49.452;8.502;2022-07-11T00:27:41;3.05;;;2.40;;
12048;SDS011;6085;49.452;8.502;2022-07-11T00:31:43;2.58;;;2.40;;
12048;SDS011;6085;49.452;8.502;2022-07-11T00:35:46;2.60;;;2.50;;
12048;SDS011;6085;49.452;8.502;2022-07-11T00:39:49;2.65;;;2.55;;
12048;SDS011;6085;49.452;8.502;2022-07-11T00:43:52;2.58;;;2.47;;
12048;SDS011;6085;49.452;8.502;2022-07-11T00:47:56;2.42;;;2.22;;
12048;SDS011;6085;49.452;8.502;2022-07-11T00:51:58;2.58;;;2.38;;
12048;SDS011;6085;49.452;8.502;2022-07-11T00:56:01;2.40;;;2.30;;
12048;SDS011;6085;49.452;8.502;2022-07-11T01:00:04;2.58;;;2.38;;
12048;SDS011;6085;49.452;8.502;2022-07-11T01:04:07;2.60;;;2.40;;
12048;SDS011;6085;49.452;8.502;2022-07-11T01:08:09;2.75;;;2.55;;
12048;SDS011;6085;49.452;8.502;2022-07-11T01:12:13;2.47;;;2.38;;
12048;SDS011;6085;49.452;8.502;2022-07-11T01:16:15;2.90;;;2.70;;
12048;SDS011;6085;49.452;8.502;2022-07-11T01:20:18;2.83;;;2.63;;
12048;SDS011;6085;49.452;8.502;2022-07-11T01:24:21;2.70;;;2.50;;
12048;SDS011;6085;49.452;8.502;2022-07-11T01:28:24;2.60;;;2.40;;
12048;SDS011;6085;49.452;8.502;2022-07-11T01:32:25;3.10;;;2.90;;
12048;SDS011;6085;49.452;8.502;2022-07-11T01:36:27;2.80;;;2.60;;
12048;SDS011;6085;49.452;8.502;2022-07-11T01:40:31;2.90;;;2.70;;
12048;SDS011;6085;49.452;8.502;2022-07-11T01:44:33;3.05;;;2.85;;
12048;SDS011;6085;49.452;8.502;2022-07-11T01:48:34;2.80;;;2.60;;
12048;SDS011;6085;49.452;8.502;2022-07-11T01:52:36;3.25;;;2.95;;
12048;SDS011;6085;49.452;8.502;2022-07-11T01:56:40;3.13;;;2.92;;
12048;SDS011;6085;49.452;8.502;2022-07-11T02:00:42;3.25;;;2.95;;
12048;SDS011;6085;49.452;8.502;2022-07-11T02:04:44;3.20;;;3.00;;
12048;SDS011;6085;49.452;8.502;2022-07-11T02:08:46;2.70;;;2.55;;
12048;SDS011;6085;49.452;8.502;2022-07-11T02:12:49;3.30;;;3.10;;
12048;SDS011;6085;49.452;8.502;2022-07-11T02:16:51;3.38;;;3.13;;
12048;SDS011;6085;49.452;8.502;2022-07-11T02:20:53;3.45;;;3.15;;
12048;SDS011;6085;49.452;8.502;2022-07-11T02:24:55;3.40;;;3.13;;
12048;SDS011;6085;49.452;8.502;2022-07-11T02:28:59;2.83;;;2.67;;
12048;SDS011;6085;49.452;8.502;2022-07-11T02:33:00;3.22;;;3.03;;
12048;SDS011;6085;49.452;8.502;2022-07-11T02:37:03;2.92;;;2.72;;
12048;SDS011;6085;49.452;8.502;2022-07-11T02:41:05;3.13;;;2.80;;
12048;SDS011;6085;49.452;8.502;2022-07-11T02:45:09;2.65;;;2.45;;
12048;SDS011;6085;49.452;8.502;2022-07-11T02:49:11;3.00;;;2.78;;
12048;SDS011;6085;49.452;8.502;2022-07-11T02:53:13;2.80;;;2.60;;
12048;SDS011;6085;49.452;8.502;2022-07-11T02:57:15;2.83;;;2.63;;
12048;SDS011;6085;49.452;8.502;2022-07-11T03:01:19;2.80;;;2.60;;
12048;SDS011;6085;49.452;8.502;2022-07-11T03:05:21;3.10;;;2.83;;
12048;SDS011;6085;49.452;8.502;2022-07-11T03:09:23;3.33;;;2.78;;
12048;SDS011;6085;49.452;8.502;2022-07-11T03:13:24;2.67;;;2.58;;
12048;SDS011;6085;49.452;8.502;2022-07-11T03:17:28;2.80;;;2.60;;
12048;SDS011;6085;49.452;8.502;2022-07-11T03:21:30;2.80;;;2.60;;
12048;SDS011;6085;49.452;8.502;2022-07-11T03:25:32;2.35;;;2.25;;
12048;SDS011;6085;49.452;8.502;2022-07-11T03:29:34;2.92;;;2.65;;
12048;SDS011;6085;49.452;8.502;2022-07-11T03:33:37;3.63;;;2.65;;
12048;SDS011;6085;49.452;8.502;2022-07-11T03:37:39;2.88;;;2.55;;
12048;SDS011;6085;49.452;8.502;2022-07-11T03:41:41;2.90;;;2.40;;
12048;SDS011;6085;49.452;8.502;2022-07-11T03:45:43;4.20;;;2.50;;
12048;SDS011;6085;49.452;8.502;2022-07-11T03:49:47;3.40;;;2.83;;
12048;SDS011;6085;49.452;8.502;2022-07-11T03:53:49;2.60;;;2.40;;
12048;SDS011;6085;49.452;8.502;2022-07-11T03:57:51;2.60;;;2.40;;
12048;SDS011;6085;49.452;8.502;2022-07-11T04:01:53;3.67;;;3.38;;
12048;SDS011;6085;49.452;8.502;2022-07-11T04:05:56;3.38;;;3.05;;
12048;SDS011;6085;49.452;8.502;2022-07-11T04:09:58;3.15;;;2.85;;
12048;SDS011;6085;49.452;8.502;2022-07-11T04:14:00;2.78;;;2.50;;
12048;SDS011;6085;49.452;8.502;2022-07-11T04:18:02;3.50;;;3.20;;
12048;SDS011;6085;49.452;8.502;2022-07-11T04:22:05;3.22;;;3.00;;
12048;SDS011;6085;49.452;8.502;2022-07-11T04:26:07;4.13;;;3.10;;
12048;SDS011;6085;49.452;8.502;2022-07-11T04:30:09;3.22;;;2.92;;
12048;SDS011;6085;49.452;8.502;2022-07-11T04:34:11;4.40;;;3.05;;
12048;SDS011;6085;49.452;8.502;2022-07-11T04:38:15;3.67;;;2.78;;
12048;SDS011;6085;49.452;8.502;2022-07-11T04:42:21;3.00;;;2.70;;
12048;SDS011;6085;49.452;8.502;2022-07-11T04:46:23;3.08;;;2.72;;
12048;SDS011;6085;49.452;8.502;2022-07-11T04:50:25;4.63;;;3.13;;
12048;SDS011;6085;49.452;8.502;2022-07-11T04:54:28;3.13;;;2.88;;
12048;SDS011;6085;49.452;8.502;2022-07-11T04:58:30;4.60;;;2.95;;
12048;SDS011;6085;49.452;8.502;2022-07-11T05:02:32;3.67;;;2.85;;
12048;SDS011;6085;49.452;8.502;2022-07-11T05:06:34;3.08;;;2.75;;
12048;SDS011;6085;49.452;8.502;2022-07-11T05:10:37;3.55;;;2.92;;
12048;SDS011;6085;49.452;8.502;2022-07-11T05:14:39;4.43;;;2.78;;
12048;SDS011;6085;49.452;8.502;2022-07-11T05:18:41;2.92;;;2.63;;
12048;SDS011;6085;49.452;8.502;2022-07-11T05:22:43;3.00;;;2.80;;
12048;SDS011;6085;49.452;8.502;2022-07-11T05:26:46;4.72;;;2.72;;
12048;SDS011;6085;49.452;8.502;2022-07-11T05:30:48;4.88;;;2.63;;
12048;SDS011;6085;49.452;8.502;2022-07-11T05:34:50;2.63;;;2.30;;
12048;SDS011;6085;49.452;8.502;2022-07-11T05:38:52;2.90;;;2.67;;
12048;SDS011;6085;49.452;8.502;2022-07-11T05:42:55;3.33;;;2.50;;
12048;SDS011;6085;49.452;8.502;2022-07-11T05:46:59;3.42;;;2.33;;
12048;SDS011;6085;49.452;8.502;2022-07-11T05:51:02;2.55;;;2.33;;
12048;SDS011;6085;49.452;8.502;2022-07-11T05:55:04;4.00;;;2.45;;
12048;SDS011;6085;49.452;8.502;2022-07-11T05:59:10;2.50;;;2.30;;
12048;SDS011;6085;49.452;8.502;2022-07-11T06:03:14;4.15;;;2.33;;
12048;SDS011;6085;49.452;8.502;2022-07-11T06:07:15;2.90;;;2.58;;
12048;SDS011;6085;49.452;8.502;2022-07-11T06:11:31;3.03;;;2.28;;
12048;SDS011;6085;49.452;8.502;2022-07-11T06:15:35;3.00;;;2.20;;
12048;SDS011;6085;49.452;8.502;2022-07-11T06:19:37;2.40;;;2.20;;
12048;SDS011;6085;49.452;8.502;2022-07-11T06:23:39;3.60;;;2.40;;
12048;SDS011;6085;49.452;8.502;2022-07-11T06:27:42;3.75;;;2.10;;
12048;SDS011;6085;49.452;8.502;2022-07-11T06:31:45;2.35;;;2.00;;
12048;SDS011;6085;49.452;8.502;2022-07-11T06:35:48;2.30;;;2.10;;
12048;SDS011;6085;49.452;8.502;2022-07-11T06:39:50;2.60;;;2.25;;
12048;SDS011;6085;49.452;8.502;2022-07-11T06:43:52;2.20;;;2.00;;
12048;SDS011;6085;49.452;8.502;2022-07-11T06:47:55;2.30;;;2.10;;
12048;SDS011;6085;49.452;8.502;2022-07-11T06:51:57;2.03;;;1.92;;
12048;SDS011;6085;49.452;8.502;2022-07-11T06:55:59;3.58;;;2.10;;
12048;SDS011;6085;49.452;8.502;2022-07-11T07:00:01;3.35;;;1.85;;
12048;SDS011;6085;49.452;8.502;2022-07-11T07:04:05;3.25;;;1.80;;
12048;SDS011;6085;49.452;8.502;2022-07-11T07:08:07;4.40;;;2.10;;
12048;SDS011;6085;49.452;8.502;2022-07-11T07:12:08;2.75;;;1.70;;
12048;SDS011;6085;49.452;8.502;2022-07-11T07:16:11;2.58;;;1.98;;
12048;SDS011;6085;49.452;8.502;2022-07-11T07:20:14;2.10;;;1.90;;
12048;SDS011;6085;49.452;8.502;2022-07-11T07:24:16;3.40;;;1.70;;
12048;SDS011;6085;49.452;8.502;2022-07-11T07:28:17;1.80;;;1.70;;
12048;SDS011;6085;49.452;8.502;2022-07-11T07:32:19;3.38;;;1.77;;
12048;SDS011;6085;49.452;8.502;2022-07-11T07:36:23;2.30;;;1.83;;
12048;SDS011;6085;49.452;8.502;2022-07-11T07:40:25;2.20;;;1.98;;
12048;SDS011;6085;49.452;8.502;2022-07-11T07:44:27;2.20;;;2.03;;
12048;SDS011;6085;49.452;8.502;2022-07-11T07:48:29;2.83;;;2.20;;
12048;SDS011;6085;49.452;8.502;2022-07-11T07:52:32;3.70;;;2.58;;
12048;SDS011;6085;49.452;8.502;2022-07-11T07:56:34;3.65;;;2.50;;
12048;SDS011;6085;49.452;8.502;2022-07-11T08:00:36;3.13;;;2.00;;
12048;SDS011;6085;49.452;8.502;2022-07-11T08:04:55;3.83;;;2.58;;
12048;SDS011;6085;49.452;8.502;2022-07-11T08:08:58;3.05;;;2.13;;
12048;SDS011;6085;49.452;8.502;2022-07-11T08:13:00;2.20;;;2.00;;
12048;SDS011;6085;49.452;8.502;2022-07-11T08:17:02;2.55;;;1.88;;
12048;SDS011;6085;49.452;8.502;2022-07-11T08:21:05;3.13;;;2.65;;
12048;SDS011;6085;49.452;8.502;2022-07-11T08:25:08;5.20;;;2.80;;
12048;SDS011;6085;49.452;8.502;2022-07-11T08:29:10;3.90;;;2.13;;
12048;SDS011;6085;49.452;8.502;2022-07-11T08:33:12;2.50;;;2.20;;
12048;SDS011;6085;49.452;8.502;2022-07-11T08:37:14;3.17;;;2.65;;
12048;SDS011;6085;49.452;8.502;2022-07-11T08:41:17;2.00;;;1.88;;
12048;SDS011;6085;49.452;8.502;2022-07-11T08:45:20;3.33;;;2.25;;
12048;SDS011;6085;49.452;8.502;2022-07-11T08:49:28;3.15;;;2.40;;
12048;SDS011;6085;49.452;8.502;2022-07-11T08:53:31;2.10;;;1.83;;
12048;SDS011;6085;49.452;8.502;2022-07-11T08:57:38;4.00;;;2.95;;
12048;SDS011;6085;49.452;8.502;2022-07-11T09:01:40;3.75;;;1.90;;
12048;SDS011;6085;49.452;8.502;2022-07-11T09:05:46;4.05;;;1.98;;
12048;SDS011;6085;49.452;8.502;2022-07-11T09:09:48;2.08;;;1.88;;
12048;SDS011;6085;49.452;8.502;2022-07-11T09:13:51;4.35;;;1.70;;
12048;SDS011;6085;49.452;8.502;2022-07-11T09:17:53;1.70;;;1.60;;
12048;SDS011;6085;49.452;8.502;2022-07-11T09:21:56;2.58;;;1.80;;
12048;SDS011;6085;49.452;8.502;2022-07-11T09:26:16;1.88;;;1.70;;
12048;SDS011;6085;49.452;8.502;2022-07-11T09:30:22;1.88;;;1.65;;
12048;SDS011;6085;49.452;8.502;2022-07-11T09:34:25;1.92;;;1.42;;
12048;SDS011;6085;49.452;8.502;2022-07-11T09:38:28;2.25;;;1.50;;
12048;SDS011;6085;49.452;8.502;2022-07-11T09:42:44;3.92;;;1.33;;
12048;SDS011;6085;49.452;8.502;2022-07-11T09:46:50;1.45;;;1.20;;
12048;SDS011;6085;49.452;8.502;2022-07-11T09:50:56;1.50;;;1.25;;
12048;SDS011;6085;49.452;8.502;2022-07-11T09:55:01;2.22;;;1.40;;
12048;SDS011;6085;49.452;8.502;2022-07-11T09:59:05;1.20;;;1.10;;
12048;SDS011;6085;49.452;8.502;2022-07-11T10:03:11;2.42;;;0.90;;
12048;SDS011;6085;49.452;8.502;2022-07-11T10:07:14;1.20;;;1.02;;
12048;SDS011;6085;49.452;8.502;2022-07-11T10:11:16;3.00;;;1.17;;
12048;SDS011;6085;49.452;8.502;2022-07-11T10:15:19;1.45;;;1.20;;
12048;SDS011;6085;49.452;8.502;2022-07-11T10:19:31;1.33;;;1.17;;
12048;SDS011;6085;49.452;8.502;2022-07-11T10:23:44;2.10;;;1.10;;
12048;SDS011;6085;49.452;8.502;2022-07-11T10:27:58;1.30;;;1.30;;
12048;SDS011;6085;49.452;8.502;2022-07-11T10:32:08;1.40;;;1.35;;
12048;SDS011;6085;49.452;8.502;2022-07-11T10:36:19;1.25;;;1.20;;
12048;SDS011;6085;49.452;8.502;2022-07-11T10:40:43;1.92;;;1.48;;
12048;SDS011;6085;49.452;8.502;2022-07-11T10:44:47;1.70;;;1.60;;
12048;SDS011;6085;49.452;8.502;2022-07-11T10:48:55;1.38;;;1.30;;
12048;SDS011;6085;49.452;8.502;2022-07-11T10:53:05;1.75;;;1.30;;
12048;SDS011;6085;49.452;8.502;2022-07-11T10:57:11;1.20;;;1.10;;
12048;SDS011;6085;49.452;8.502;2022-07-11T11:01:18;3.10;;;1.38;;
12048;SDS011;6085;49.452;8.502;2022-07-11T11:09:51;2.60;;;1.88;;
12048;SDS011;6085;49.452;8.502;2022-07-11T11:18:30;2.28;;;2.05;;
12048;SDS011;6085;49.452;8.502;2022-07-11T11:22:41;2.13;;;2.00;;
12048;SDS011;6085;49.452;8.502;2022-07-11T11:27:15;2.25;;;2.03;;
12048;SDS011;6085;49.452;8.502;2022-07-11T11:31:19;2.50;;;2.30;;
12048;SDS011;6085;49.452;8.502;2022-07-11T11:35:21;2.22;;;2.03;;
12048;SDS011;6085;49.452;8.502;2022-07-11T11:39:24;4.25;;;2.40;;
12048;SDS011;6085;49.452;8.502;2022-07-11T11:43:29;2.72;;;2.53;;
12048;SDS011;6085;49.452;8.502;2022-07-11T11:47:31;2.88;;;2.42;;
12048;SDS011;6085;49.452;8.502;2022-07-11T11:51:33;3.72;;;2.63;;
12048;SDS011;6085;49.452;8.502;2022-07-11T11:55:35;2.67;;;2.15;;
12048;SDS011;6085;49.452;8.502;2022-07-11T11:59:38;2.72;;;2.53;;
12048;SDS011;6085;49.452;8.502;2022-07-11T12:03:48;3.47;;;2.53;;
12048;SDS011;6085;49.452;8.502;2022-07-11T12:07:51;4.13;;;2.83;;
12048;SDS011;6085;49.452;8.502;2022-07-11T12:11:54;3.95;;;3.38;;
12048;SDS011;6085;49.452;8.502;2022-07-11T12:16:14;4.93;;;2.90;;
12048;SDS011;6085;49.452;8.502;2022-07-11T12:20:39;4.32;;;2.70;;
12048;SDS011;6085;49.452;8.502;2022-07-11T12:24:45;2.60;;;2.40;;
12048;SDS011;6085;49.452;8.502;2022-07-11T12:33:14;3.30;;;2.92;;
12048;SDS011;6085;49.452;8.502;2022-07-11T12:37:16;2.90;;;2.63;;
12048;SDS011;6085;49.452;8.502;2022-07-11T12:41:19;3.22;;;3.00;;
12048;SDS011;6085;49.452;8.502;2022-07-11T12:45:21;3.05;;;2.70;;
12048;SDS011;6085;49.452;8.502;2022-07-11T12:49:26;2.75;;;2.55;;
12048;SDS011;6085;49.452;8.502;2022-07-11T12:53:28;2.67;;;2.40;;
12048;SDS011;6085;49.452;8.502;2022-07-11T12:57:30;2.58;;;2.38;;
12048;SDS011;6085;49.452;8.502;2022-07-11T13:01:32;2.20;;;2.10;;
12048;SDS011;6085;49.452;8.502;2022-07-11T13:05:48;3.10;;;2.78;;
12048;SDS011;6085;49.452;8.502;2022-07-11T13:09:50;2.92;;;2.50;;
12048;SDS011;6085;49.452;8.502;2022-07-11T13:13:51;3.15;;;2.80;;
12048;SDS011;6085;49.452;8.502;2022-07-11T13:17:54;2.00;;;1.88;;
12048;SDS011;6085;49.452;8.502;2022-07-11T13:21:57;2.30;;;2.20;;
12048;SDS011;6085;49.452;8.502;2022-07-11T13:26:00;3.05;;;2.25;;
12048;SDS011;6085;49.452;8.502;2022-07-11T13:30:03;2.50;;;2.30;;
12048;SDS011;6085;49.452;8.502;2022-07-11T13:34:11;2.22;;;2.00;;
12048;SDS011;6085;49.452;8.502;2022-07-11T13:38:14;2.50;;;2.13;;
12048;SDS011;6085;49.452;8.502;2022-07-11T13:42:16;2.58;;;1.90;;
12048;SDS011;6085;49.452;8.502;2022-07-11T13:46:18;1.90;;;1.80;;
12048;SDS011;6085;49.452;8.502;2022-07-11T13:50:20;2.10;;;2.00;;
12048;SDS011;6085;49.452;8.502;2022-07-11T13:54:24;3.20;;;2.00;;
12048;SDS011;6085;49.452;8.502;2022-07-11T13:58:26;1.98;;;1.88;;
12048;SDS011;6085;49.452;8.502;2022-07-11T14:02:29;1.85;;;1.75;;
12048;SDS011;6085;49.452;8.502;2022-07-11T14:06:31;1.88;;;1.77;;
12048;SDS011;6085;49.452;8.502;2022-07-11T14:10:35;1.83;;;1.73;;
12048;SDS011;6085;49.452;8.502;2022-07-11T14:14:37;2.10;;;1.90;;
12048;SDS011;6085;49.452;8.502;2022-07-11T14:18:39;2.20;;;1.98;;
12048;SDS011;6085;49.452;8.502;2022-07-11T14:22:41;1.85;;;1.75;;
12048;SDS011;6085;49.452;8.502;2022-07-11T14:26:45;3.00;;;1.80;;
12048;SDS011;6085;49.452;8.502;2022-07-11T14:30:47;2.80;;;1.80;;
12048;SDS011;6085;49.452;8.502;2022-07-11T14:34:49;1.80;;;1.70;;
12048;SDS011;6085;49.452;8.502;2022-07-11T14:38:51;1.90;;;1.80;;
12048;SDS011;6085;49.452;8.502;2022-07-11T14:42:55;2.92;;;2.00;;
12048;SDS011;6085;49.452;8.502;2022-07-11T14:46:57;2.03;;;1.88;;
12048;SDS011;6085;49.452;8.502;2022-07-11T14:50:59;2.17;;;1.98;;
12048;SDS011;6085;49.452;8.502;2022-07-11T14:55:01;1.95;;;1.80;;
12048;SDS011;6085;49.452;8.502;2022-07-11T14:59:05;2.13;;;2.03;;
12048;SDS011;6085;49.452;8.502;2022-07-11T15:03:08;2.53;;;2.03;;
12048;SDS011;6085;49.452;8.502;2022-07-11T15:07:27;2.30;;;2.10;;
12048;SDS011;6085;49.452;8.502;2022-07-11T15:11:46;2.60;;;1.67;;
12048;SDS011;6085;49.452;8.502;2022-07-11T15:16:07;2.10;;;1.90;;
12048;SDS011;6085;49.452;8.502;2022-07-11T15:20:09;2.03;;;1.80;;
12048;SDS011;6085;49.452;8.502;2022-07-11T15:24:11;2.38;;;2.20;;
12048;SDS011;6085;49.452;8.502;2022-07-11T15:28:13;2.17;;;2.08;;
12048;SDS011;6085;49.452;8.502;2022-07-11T15:32:16;2.13;;;1.92;;
12048;SDS011;6085;49.452;8.502;2022-07-11T15:36:18;2.10;;;1.90;;
12048;SDS011;6085;49.452;8.502;2022-07-11T15:40:20;2.10;;;1.90;;
12048;SDS011;6085;49.452;8.502;2022-07-11T15:44:22;2.13;;;2.03;;
12048;SDS011;6085;49.452;8.502;2022-07-11T15:48:27;2.30;;;2.20;;
12048;SDS011;6085;49.452;8.502;2022-07-11T15:52:30;2.10;;;1.90;;
12048;SDS011;6085;49.452;8.502;2022-07-11T15:56:32;2.05;;;1.90;;
12048;SDS011;6085;49.452;8.502;2022-07-11T16:00:34;2.00;;;1.90;;
12048;SDS011;6085;49.452;8.502;2022-07-11T16:04:37;1.90;;;1.80;;
12048;SDS011;6085;49.452;8.502;2022-07-11T16:08:39;2.00;;;1.85;;
12048;SDS011;6085;49.452;8.502;2022-07-11T16:12:41;2.08;;;1.98;;
12048;SDS011;6085;49.452;8.502;2022-07-11T16:16:43;2.40;;;2.20;;
12048;SDS011;6085;49.452;8.502;2022-07-11T16:20:46;2.03;;;1.90;;
12048;SDS011;6085;49.452;8.502;2022-07-11T16:24:48;2.00;;;1.90;;
12048;SDS011;6085;49.452;8.502;2022-07-11T16:28:50;2.05;;;1.92;;
12048;SDS011;6085;49.452;8.502;2022-07-11T16:32:54;1.90;;;1.80;;
12048;SDS011;6085;49.452;8.502;2022-07-11T16:36:57;2.05;;;1.85;;
12048;SDS011;6085;49.452;8.502;2022-07-11T16:40:59;2.13;;;2.03;;
12048;SDS011;6085;49.452;8.502;2022-07-11T16:45:19;1.95;;;1.85;;
12048;SDS011;6085;49.452;8.502;2022-07-11T16:49:20;4.28;;;2.10;;
12048;SDS011;6085;49.452;8.502;2022-07-11T16:53:24;1.83;;;1.67;;
12048;SDS011;6085;49.452;8.502;2022-07-11T16:57:26;1.80;;;1.70;;
12048;SDS011;6085;49.452;8.502;2022-07-11T17:01:28;2.10;;;2.00;;
12048;SDS011;6085;49.452;8.502;2022-07-11T17:05:30;2.33;;;1.80;;
12048;SDS011;6085;49.452;8.502;2022-07-11T17:09:34;2.28;;;1.60;;
12048;SDS011;6085;49.452;8.502;2022-07-11T17:13:36;1.80;;;1.70;;
12048;SDS011;6085;49.452;8.502;2022-07-11T17:17:38;5.35;;;1.65;;
12048;SDS011;6085;49.452;8.502;2022-07-11T17:21:40;1.98;;;1.88;;
12048;SDS011;6085;49.452;8.502;2022-07-11T17:25:44;1.77;;;1.67;;
12048;SDS011;6085;49.452;8.502;2022-07-11T17:29:46;2.15;;;1.60;;
12048;SDS011;6085;49.452;8.502;2022-07-11T17:33:48;1.83;;;1.73;;
12048;SDS011;6085;49.452;8.502;2022-07-11T17:37:50;1.80;;;1.70;;
12048;SDS011;6085;49.452;8.502;2022-07-11T17:41:53;1.58;;;1.40;;
12048;SDS011;6085;49.452;8.502;2022-07-11T17:45:55;1.50;;;1.40;;
12048;SDS011;6085;49.452;8.502;2022-07-11T17:49:57;1.65;;;1.55;;
12048;SDS011;6085;49.452;8.502;2022-07-11T17:53:59;1.55;;;1.45;;
12048;SDS011;6085;49.452;8.502;2022-07-11T17:58:02;1.50;;;1.40;;
12048;SDS011;6085;49.452;8.502;2022-07-11T18:02:04;1.60;;;1.50;;
12048;SDS011;6085;49.452;8.502;2022-07-11T18:06:07;2.25;;;1.60;;
12048;SDS011;6085;49.452;8.502;2022-07-11T18:10:10;1.40;;;1.40;;
12048;SDS011;6085;49.452;8.502;2022-07-11T18:14:13;2.30;;;1.65;;
12048;SDS011;6085;49.452;8.502;2022-07-11T18:18:15;2.50;;;1.70;;
12048;SDS011;6085;49.452;8.502;2022-07-11T18:22:17;1.58;;;1.48;;
12048;SDS011;6085;49.452;8.502;2022-07-11T18:26:19;1.52;;;1.42;;
12048;SDS011;6085;49.452;8.502;2022-07-11T18:30:23;3.00;;;1.73;;
12048;SDS011;6085;49.452;8.502;2022-07-11T18:34:25;1.80;;;1.70;;
12048;SDS011;6085;49.452;8.502;2022-07-11T18:38:27;2.53;;;2.00;;
12048;SDS011;6085;49.452;8.502;2022-07-11T18:42:30;1.80;;;1.70;;
12048;SDS011;6085;49.452;8.502;2022-07-11T18:46:32;1.70;;;1.60;;
12048;SDS011;6085;49.452;8.502;2022-07-11T18:50:35;1.75;;;1.60;;
12048;SDS011;6085;49.452;8.502;2022-07-11T18:54:37;1.70;;;1.60;;
12048;SDS011;6085;49.452;8.502;2022-07-11T18:58:39;1.48;;;1.40;;
12048;SDS011;6085;49.452;8.502;2022-07-11T19:02:43;1.60;;;1.50;;
12048;SDS011;6085;49.452;8.502;2022-07-11T19:06:46;1.70;;;1.60;;
12048;SDS011;6085;49.452;8.502;2022-07-11T19:10:48;1.65;;;1.55;;
12048;SDS011;6085;49.452;8.502;2022-07-11T19:14:49;2.45;;;1.70;;
12048;SDS011;6085;49.452;8.502;2022-07-11T19:18:54;1.63;;;1.52;;
12048;SDS011;6085;49.452;8.502;2022-07-11T19:22:55;1.77;;;1.40;;
12048;SDS011;6085;49.452;8.502;2022-07-11T19:26:58;1.80;;;1.70;;
12048;SDS011;6085;49.452;8.502;2022-07-11T19:31:01;1.70;;;1.60;;
12048;SDS011;6085;49.452;8.502;2022-07-11T19:35:05;3.03;;;1.92;;
12048;SDS011;6085;49.452;8.502;2022-07-11T19:39:07;1.83;;;1.73;;
12048;SDS011;6085;49.452;8.502;2022-07-11T19:43:09;1.80;;;1.70;;
12048;SDS011;6085;49.452;8.502;2022-07-11T19:47:13;1.77;;;1.65;;
12048;SDS011;6085;49.452;8.502;2022-07-11T19:51:17;1.45;;;1.42;;
12048;SDS011;6085;49.452;8.502;2022-07-11T19:55:19;1.73;;;1.55;;
12048;SDS011;6085;49.452;8.502;2022-07-11T19:59:38;2.30;;;1.70;;
12048;SDS011;6085;49.452;8.502;2022-07-11T20:03:40;1.52;;;1.42;;
12048;SDS011;6085;49.452;8.502;2022-07-11T20:07:44;1.42;;;1.25;;
12048;SDS011;6085;49.452;8.502;2022-07-11T20:11:47;1.17;;;1.10;;
12048;SDS011;6085;49.452;8.502;2022-07-11T20:15:48;1.50;;;1.40;;
12048;SDS011;6085;49.452;8.502;2022-07-11T20:19:51;1.90;;;1.38;;
12048;SDS011;6085;49.452;8.502;2022-07-11T20:23:56;1.10;;;1.10;;
12048;SDS011;6085;49.452;8.502;2022-07-11T20:27:58;1.30;;;1.20;;
12048;SDS011;6085;49.452;8.502;2022-07-11T20:32:00;1.42;;;1.33;;
12048;SDS011;6085;49.452;8.502;2022-07-11T20:36:02;1.50;;;1.40;;
12048;SDS011;6085;49.452;8.502;2022-07-11T20:40:07;1.90;;;1.17;;
12048;SDS011;6085;49.452;8.502;2022-07-11T20:44:09;1.17;;;1.17;;
12048;SDS011;6085;49.452;8.502;2022-07-11T20:48:11;1.42;;;1.30;;
12048;SDS011;6085;49.452;8.502;2022-07-11T20:52:13;1.83;;;1.50;;
12048;SDS011;6085;49.452;8.502;2022-07-11T20:56:17;1.58;;;1.40;;
12048;SDS011;6085;49.452;8.502;2022-07-11T21:00:18;1.27;;;1.27;;
12048;SDS011;6085;49.452;8.502;2022-07-11T21:04:20;1.33;;;1.27;;
12048;SDS011;6085;49.452;8.502;2022-07-11T21:08:22;1.48;;;1.40;;
12048;SDS011;6085;49.452;8.502;2022-07-11T21:12:26;1.55;;;1.48;;
12048;SDS011;6085;49.452;8.502;2022-07-11T21:16:28;1.35;;;1.35;;
12048;SDS011;6085;49.452;8.502;2022-07-11T21:20:29;2.03;;;1.70;;
12048;SDS011;6085;49.452;8.502;2022-07-11T21:24:31;1.50;;;1.50;;
12048;SDS011;6085;49.452;8.502;2022-07-11T21:28:35;2.08;;;1.38;;
12048;SDS011;6085;49.452;8.502;2022-07-11T21:32:37;1.48;;;1.38;;
12048;SDS011;6085;49.452;8.502;2022-07-11T21:36:38;1.50;;;1.40;;
12048;SDS011;6085;49.452;8.502;2022-07-11T21:40:40;1.25;;;1.23;;
12048;SDS011;6085;49.452;8.502;2022-07-11T21:44:44;1.60;;;1.50;;
12048;SDS011;6085;49.452;8.502;2022-07-11T21:48:45;1.50;;;1.40;;
12048;SDS011;6085;49.452;8.502;2022-07-11T21:52:47;1.42;;;1.40;;
12048;SDS011;6085;49.452;8.502;2022-07-11T21:56:50;1.50;;;1.40;;
12048;SDS011;6085;49.452;8.502;2022-07-11T22:00:53;1.70;;;1.60;;
12048;SDS011;6085;49.452;8.502;2022-07-11T22:04:55;1.48;;;1.40;;
12048;SDS011;6085;49.452;8.502;2022-07-11T22:08:57;2.40;;;2.20;;
12048;SDS011;6085;49.452;8.502;2022-07-11T22:12:58;2.10;;;2.00;;
12048;SDS011;6085;49.452;8.502;2022-07-11T22:17:02;3.17;;;1.75;;
12048;SDS011;6085;49.452;8.502;2022-07-11T22:21:04;2.05;;;1.63;;
12048;SDS011;6085;49.452;8.502;2022-07-11T22:25:07;1.70;;;1.60;;
12048;SDS011;6085;49.452;8.502;2022-07-11T22:29:09;1.50;;;1.40;;
12048;SDS011;6085;49.452;8.502;2022-07-11T22:33:12;1.38;;;1.38;;
12048;SDS011;6085;49.452;8.502;2022-07-11T22:37:14;1.60;;;1.50;;
12048;SDS011;6085;49.452;8.502;2022-07-11T22:41:16;1.55;;;1.45;;
12048;SDS011;6085;49.452;8.502;2022-07-11T22:45:18;1.90;;;1.60;;
12048;SDS011;6085;49.452;8.502;2022-07-11T22:49:21;1.58;;;1.52;;
12048;SDS011;6085;49.452;8.502;2022-07-11T22:53:23;1.70;;;1.60;;
12048;SDS011;6085;49.452;8.502;2022-07-11T22:57:25;1.88;;;1.70;;
12048;SDS011;6085;49.452;8.502;2022-07-11T23:01:27;1.90;;;1.80;;
12048;SDS011;6085;49.452;8.502;2022-07-11T23:05:30;1.85;;;1.67;;
12048;SDS011;6085;49.452;8.502;2022-07-11T23:09:32;1.58;;;1.50;;
12048;SDS011;6085;49.452;8.502;2022-07-11T23:13:34;1.83;;;1.73;;
12048;SDS011;6085;49.452;8.502;2022-07-11T23:17:36;2.00;;;1.90;;
12048;SDS011;6085;49.452;8.502;2022-07-11T23:21:40;1.80;;;1.70;;
12048;SDS011;6085;49.452;8.502;2022-07-11T23:25:42;1.70;;;1.60;;
12048;SDS011;6085;49.452;8.502;2022-07-11T23:29:43;1.92;;;1.80;;
12048;SDS011;6085;49.452;8.502;2022-07-11T23:33:45;2.30;;;2.10;;
12048;SDS011;6085;49.452;8.502;2022-07-11T23:37:49;2.00;;;1.90;;
12048;SDS011;6085;49.452;8.502;2022-07-11T23:41:50;1.75;;;1.65;;
12048;SDS011;6085;49.452;8.502;2022-07-11T23:45:52;1.55;;;1.45;;
12048;SDS011;6085;49.452;8.502;2022-07-11T23:49:54;1.63;;;1.52;;
12048;SDS011;6085;49.452;8.502;2022-07-11T23:53:57;2.53;;;2.33;;
12048;SDS011;6085;49.452;8.502;2022-07-11T23:57:59;2.00;;;1.90;;
